sensor_id;sensor_type;location;lat;lon;timestamp;P1;durP1;ratioP1;P2;durP2;ratioP2
46036;SDS011;31769;49.304;8.428;2023-07-09T00:00:23;9.10;;;6.22;;
46036;SDS011;31769;49.304;8.428;2023-07-09T00:03:24;11.32;;;6.40;;
46036;SDS011;31769;49.304;8.428;2023-07-09T00:06:25;15.45;;;6.50;;
46036;SDS011;31769;49.304;8.428;2023-07-09T00:09:25;10.70;;;6.40;;
46036;SDS011;31769;49.304;8.428;2023-07-09T00:12:26;13.32;;;6.20;;
46036;SDS011;31769;49.304;8.428;2023-07-09T00:15:27;11.25;;;6.22;;
46036;SDS011;31769;49.304;8.428;2023-07-09T00:18:27;11.13;;;6.18;;
46036;SDS011;31769;49.304;8.428;2023-07-09T00:21:28;15.30;;;6.05;;
46036;SDS011;31769;49.304;8.428;2023-07-09T00:24:33;10.75;;;5.88;;
46036;SDS011;31769;49.304;8.428;2023-07-09T00:27:35;12.90;;;6.30;;
46036;SDS011;31769;49.304;8.428;2023-07-09T00:30:36;12.00;;;6.25;;
46036;SDS011;31769;49.304;8.428;2023-07-09T00:37:11;11.00;;;6.03;;
46036;SDS011;31769;49.304;8.428;2023-07-09T00:40:16;10.38;;;5.90;;
46036;SDS011;31769;49.304;8.428;2023-07-09T00:43:18;15.80;;;6.88;;
46036;SDS011;31769;49.304;8.428;2023-07-09T00:49:38;12.52;;;5.88;;
46036;SDS011;31769;49.304;8.428;2023-07-09T00:52:50;12.52;;;6.00;;
46036;SDS011;31769;49.304;8.428;2023-07-09T00:56:04;10.80;;;5.80;;
46036;SDS011;31769;49.304;8.428;2023-07-09T00:59:11;9.80;;;5.50;;
46036;SDS011;31769;49.304;8.428;2023-07-09T01:02:15;8.30;;;5.70;;
46036;SDS011;31769;49.304;8.428;2023-07-09T01:05:15;11.18;;;5.50;;
46036;SDS011;31769;49.304;8.428;2023-07-09T01:08:19;10.50;;;5.72;;
46036;SDS011;31769;49.304;8.428;2023-07-09T01:11:21;11.32;;;5.60;;
46036;SDS011;31769;49.304;8.428;2023-07-09T01:14:22;14.25;;;5.88;;
46036;SDS011;31769;49.304;8.428;2023-07-09T01:17:27;10.90;;;5.95;;
46036;SDS011;31769;49.304;8.428;2023-07-09T01:20:28;16.50;;;6.13;;
46036;SDS011;31769;49.304;8.428;2023-07-09T01:23:28;10.50;;;6.25;;
46036;SDS011;31769;49.304;8.428;2023-07-09T01:26:31;9.98;;;5.75;;
46036;SDS011;31769;49.304;8.428;2023-07-09T01:29:32;9.32;;;6.05;;
46036;SDS011;31769;49.304;8.428;2023-07-09T01:32:36;12.10;;;5.93;;
46036;SDS011;31769;49.304;8.428;2023-07-09T01:35:39;13.10;;;6.45;;
46036;SDS011;31769;49.304;8.428;2023-07-09T01:38:43;11.40;;;5.38;;
46036;SDS011;31769;49.304;8.428;2023-07-09T01:41:46;9.98;;;5.88;;
46036;SDS011;31769;49.304;8.428;2023-07-09T01:44:48;10.77;;;6.43;;
46036;SDS011;31769;49.304;8.428;2023-07-09T01:47:50;11.98;;;6.30;;
46036;SDS011;31769;49.304;8.428;2023-07-09T01:50:54;13.95;;;6.47;;
46036;SDS011;31769;49.304;8.428;2023-07-09T01:53:55;10.30;;;6.40;;
46036;SDS011;31769;49.304;8.428;2023-07-09T01:57:12;13.90;;;6.60;;
46036;SDS011;31769;49.304;8.428;2023-07-09T02:00:16;14.25;;;6.63;;
46036;SDS011;31769;49.304;8.428;2023-07-09T02:03:17;10.20;;;6.13;;
46036;SDS011;31769;49.304;8.428;2023-07-09T02:06:18;8.15;;;6.10;;
46036;SDS011;31769;49.304;8.428;2023-07-09T02:09:19;12.35;;;6.32;;
46036;SDS011;31769;49.304;8.428;2023-07-09T02:12:20;14.32;;;6.57;;
46036;SDS011;31769;49.304;8.428;2023-07-09T02:15:21;11.48;;;6.45;;
46036;SDS011;31769;49.304;8.428;2023-07-09T02:18:22;8.30;;;6.05;;
46036;SDS011;31769;49.304;8.428;2023-07-09T02:21:22;12.82;;;6.20;;
46036;SDS011;31769;49.304;8.428;2023-07-09T02:24:23;11.80;;;6.13;;
46036;SDS011;31769;49.304;8.428;2023-07-09T02:27:25;12.38;;;5.90;;
46036;SDS011;31769;49.304;8.428;2023-07-09T02:30:28;9.13;;;5.80;;
46036;SDS011;31769;49.304;8.428;2023-07-09T02:33:28;9.98;;;6.07;;
46036;SDS011;31769;49.304;8.428;2023-07-09T02:36:33;14.50;;;7.10;;
46036;SDS011;31769;49.304;8.428;2023-07-09T02:39:34;12.10;;;6.63;;
46036;SDS011;31769;49.304;8.428;2023-07-09T02:42:35;12.40;;;6.45;;
46036;SDS011;31769;49.304;8.428;2023-07-09T02:45:36;10.38;;;6.85;;
46036;SDS011;31769;49.304;8.428;2023-07-09T02:48:36;8.48;;;6.88;;
46036;SDS011;31769;49.304;8.428;2023-07-09T02:51:37;12.43;;;6.80;;
46036;SDS011;31769;49.304;8.428;2023-07-09T02:54:38;15.30;;;7.50;;
46036;SDS011;31769;49.304;8.428;2023-07-09T02:57:39;14.70;;;8.23;;
46036;SDS011;31769;49.304;8.428;2023-07-09T03:00:39;10.70;;;7.30;;
46036;SDS011;31769;49.304;8.428;2023-07-09T03:03:40;9.90;;;7.05;;
46036;SDS011;31769;49.304;8.428;2023-07-09T03:06:41;10.52;;;6.75;;
46036;SDS011;31769;49.304;8.428;2023-07-09T03:09:42;11.13;;;6.97;;
46036;SDS011;31769;49.304;8.428;2023-07-09T03:12:42;12.15;;;7.07;;
46036;SDS011;31769;49.304;8.428;2023-07-09T03:15:43;8.65;;;6.40;;
46036;SDS011;31769;49.304;8.428;2023-07-09T03:18:53;13.30;;;6.53;;
46036;SDS011;31769;49.304;8.428;2023-07-09T03:21:54;11.93;;;6.90;;
46036;SDS011;31769;49.304;8.428;2023-07-09T03:24:55;10.07;;;6.18;;
46036;SDS011;31769;49.304;8.428;2023-07-09T03:27:56;8.35;;;6.78;;
46036;SDS011;31769;49.304;8.428;2023-07-09T03:30:57;14.18;;;7.97;;
46036;SDS011;31769;49.304;8.428;2023-07-09T03:33:58;12.48;;;7.07;;
46036;SDS011;31769;49.304;8.428;2023-07-09T03:36:58;8.25;;;6.78;;
46036;SDS011;31769;49.304;8.428;2023-07-09T03:39:59;11.38;;;7.15;;
46036;SDS011;31769;49.304;8.428;2023-07-09T03:43:00;11.35;;;7.32;;
46036;SDS011;31769;49.304;8.428;2023-07-09T03:46:00;13.98;;;7.55;;
46036;SDS011;31769;49.304;8.428;2023-07-09T03:49:01;11.13;;;7.13;;
46036;SDS011;31769;49.304;8.428;2023-07-09T03:52:02;15.82;;;8.10;;
46036;SDS011;31769;49.304;8.428;2023-07-09T03:55:03;10.25;;;7.15;;
46036;SDS011;31769;49.304;8.428;2023-07-09T03:58:04;9.98;;;7.50;;
46036;SDS011;31769;49.304;8.428;2023-07-09T04:01:05;11.48;;;7.20;;
46036;SDS011;31769;49.304;8.428;2023-07-09T04:04:05;13.43;;;8.00;;
46036;SDS011;31769;49.304;8.428;2023-07-09T04:07:06;13.57;;;7.53;;
46036;SDS011;31769;49.304;8.428;2023-07-09T04:10:06;10.70;;;7.63;;
46036;SDS011;31769;49.304;8.428;2023-07-09T04:13:07;11.43;;;7.10;;
46036;SDS011;31769;49.304;8.428;2023-07-09T04:16:09;10.55;;;7.70;;
46036;SDS011;31769;49.304;8.428;2023-07-09T04:19:10;12.82;;;7.55;;
46036;SDS011;31769;49.304;8.428;2023-07-09T04:22:11;17.23;;;13.18;;
46036;SDS011;31769;49.304;8.428;2023-07-09T04:25:11;10.30;;;6.82;;
46036;SDS011;31769;49.304;8.428;2023-07-09T04:28:12;11.82;;;7.53;;
46036;SDS011;31769;49.304;8.428;2023-07-09T04:31:13;12.73;;;7.35;;
46036;SDS011;31769;49.304;8.428;2023-07-09T04:34:14;11.38;;;7.28;;
46036;SDS011;31769;49.304;8.428;2023-07-09T04:37:15;11.68;;;8.20;;
46036;SDS011;31769;49.304;8.428;2023-07-09T04:40:17;11.00;;;7.65;;
46036;SDS011;31769;49.304;8.428;2023-07-09T04:43:19;10.35;;;7.68;;
46036;SDS011;31769;49.304;8.428;2023-07-09T04:46:19;7.70;;;6.78;;
46036;SDS011;31769;49.304;8.428;2023-07-09T04:49:20;10.43;;;6.43;;
46036;SDS011;31769;49.304;8.428;2023-07-09T04:52:21;6.95;;;5.47;;
46036;SDS011;31769;49.304;8.428;2023-07-09T04:55:22;9.95;;;6.72;;
46036;SDS011;31769;49.304;8.428;2023-07-09T04:58:22;9.95;;;6.50;;
46036;SDS011;31769;49.304;8.428;2023-07-09T05:01:23;13.57;;;8.10;;
46036;SDS011;31769;49.304;8.428;2023-07-09T05:04:24;11.15;;;6.50;;
46036;SDS011;31769;49.304;8.428;2023-07-09T05:07:24;8.25;;;5.75;;
46036;SDS011;31769;49.304;8.428;2023-07-09T05:10:25;8.95;;;5.90;;
46036;SDS011;31769;49.304;8.428;2023-07-09T05:13:26;10.10;;;7.18;;
46036;SDS011;31769;49.304;8.428;2023-07-09T05:16:27;11.13;;;6.43;;
46036;SDS011;31769;49.304;8.428;2023-07-09T05:19:28;9.63;;;6.05;;
46036;SDS011;31769;49.304;8.428;2023-07-09T05:22:28;9.88;;;5.82;;
46036;SDS011;31769;49.304;8.428;2023-07-09T05:25:29;9.25;;;5.65;;
46036;SDS011;31769;49.304;8.428;2023-07-09T05:28:30;9.95;;;5.68;;
46036;SDS011;31769;49.304;8.428;2023-07-09T05:31:34;8.07;;;6.18;;
46036;SDS011;31769;49.304;8.428;2023-07-09T05:34:36;10.05;;;6.03;;
46036;SDS011;31769;49.304;8.428;2023-07-09T05:37:36;8.13;;;5.60;;
46036;SDS011;31769;49.304;8.428;2023-07-09T05:40:37;8.48;;;5.47;;
46036;SDS011;31769;49.304;8.428;2023-07-09T05:43:38;8.55;;;5.47;;
46036;SDS011;31769;49.304;8.428;2023-07-09T05:46:40;6.88;;;5.22;;
46036;SDS011;31769;49.304;8.428;2023-07-09T05:49:40;6.70;;;5.60;;
46036;SDS011;31769;49.304;8.428;2023-07-09T05:52:41;7.03;;;5.20;;
46036;SDS011;31769;49.304;8.428;2023-07-09T05:55:42;8.00;;;5.07;;
46036;SDS011;31769;49.304;8.428;2023-07-09T05:58:42;9.00;;;5.28;;
46036;SDS011;31769;49.304;8.428;2023-07-09T06:01:43;9.77;;;5.15;;
46036;SDS011;31769;49.304;8.428;2023-07-09T06:04:44;8.13;;;5.28;;
46036;SDS011;31769;49.304;8.428;2023-07-09T06:07:45;6.55;;;4.90;;
46036;SDS011;31769;49.304;8.428;2023-07-09T06:10:54;11.48;;;4.90;;
46036;SDS011;31769;49.304;8.428;2023-07-09T06:13:56;10.05;;;6.03;;
46036;SDS011;31769;49.304;8.428;2023-07-09T06:16:58;9.90;;;6.32;;
46036;SDS011;31769;49.304;8.428;2023-07-09T06:19:59;6.78;;;5.50;;
46036;SDS011;31769;49.304;8.428;2023-07-09T06:23:00;7.70;;;4.90;;
46036;SDS011;31769;49.304;8.428;2023-07-09T06:26:01;7.63;;;5.07;;
46036;SDS011;31769;49.304;8.428;2023-07-09T06:29:01;7.90;;;5.20;;
46036;SDS011;31769;49.304;8.428;2023-07-09T06:32:03;6.30;;;4.38;;
46036;SDS011;31769;49.304;8.428;2023-07-09T06:35:04;9.77;;;5.10;;
46036;SDS011;31769;49.304;8.428;2023-07-09T06:38:05;8.93;;;5.78;;
46036;SDS011;31769;49.304;8.428;2023-07-09T06:41:06;8.25;;;5.07;;
46036;SDS011;31769;49.304;8.428;2023-07-09T06:44:07;7.30;;;4.50;;
46036;SDS011;31769;49.304;8.428;2023-07-09T06:47:09;7.43;;;4.72;;
46036;SDS011;31769;49.304;8.428;2023-07-09T06:50:09;8.05;;;5.20;;
46036;SDS011;31769;49.304;8.428;2023-07-09T06:53:11;8.77;;;4.85;;
46036;SDS011;31769;49.304;8.428;2023-07-09T06:56:12;6.22;;;4.80;;
46036;SDS011;31769;49.304;8.428;2023-07-09T06:59:12;7.72;;;4.65;;
46036;SDS011;31769;49.304;8.428;2023-07-09T07:02:13;5.70;;;4.85;;
46036;SDS011;31769;49.304;8.428;2023-07-09T07:05:13;8.65;;;4.82;;
46036;SDS011;31769;49.304;8.428;2023-07-09T07:08:15;5.88;;;4.93;;
46036;SDS011;31769;49.304;8.428;2023-07-09T07:11:17;8.07;;;4.40;;
46036;SDS011;31769;49.304;8.428;2023-07-09T07:14:18;5.28;;;4.38;;
46036;SDS011;31769;49.304;8.428;2023-07-09T07:17:19;8.02;;;4.55;;
46036;SDS011;31769;49.304;8.428;2023-07-09T07:20:19;7.35;;;4.63;;
46036;SDS011;31769;49.304;8.428;2023-07-09T07:23:20;6.80;;;4.90;;
46036;SDS011;31769;49.304;8.428;2023-07-09T07:26:21;6.55;;;4.68;;
46036;SDS011;31769;49.304;8.428;2023-07-09T07:29:22;9.27;;;4.97;;
46036;SDS011;31769;49.304;8.428;2023-07-09T07:32:23;6.43;;;4.97;;
46036;SDS011;31769;49.304;8.428;2023-07-09T07:35:24;7.20;;;5.25;;
46036;SDS011;31769;49.304;8.428;2023-07-09T07:38:25;7.55;;;4.85;;
46036;SDS011;31769;49.304;8.428;2023-07-09T07:41:25;8.25;;;4.50;;
46036;SDS011;31769;49.304;8.428;2023-07-09T07:44:26;6.72;;;4.85;;
46036;SDS011;31769;49.304;8.428;2023-07-09T07:47:27;6.25;;;4.32;;
46036;SDS011;31769;49.304;8.428;2023-07-09T07:50:28;6.68;;;5.53;;
46036;SDS011;31769;49.304;8.428;2023-07-09T07:53:29;7.05;;;5.00;;
46036;SDS011;31769;49.304;8.428;2023-07-09T07:56:30;7.57;;;5.43;;
46036;SDS011;31769;49.304;8.428;2023-07-09T07:59:31;7.40;;;5.03;;
46036;SDS011;31769;49.304;8.428;2023-07-09T08:02:34;6.68;;;4.53;;
46036;SDS011;31769;49.304;8.428;2023-07-09T08:05:35;8.23;;;4.57;;
46036;SDS011;31769;49.304;8.428;2023-07-09T08:08:36;6.32;;;5.32;;
46036;SDS011;31769;49.304;8.428;2023-07-09T08:11:36;22.85;;;15.20;;
46036;SDS011;31769;49.304;8.428;2023-07-09T08:14:38;7.90;;;4.45;;
46036;SDS011;31769;49.304;8.428;2023-07-09T08:17:39;7.00;;;4.47;;
46036;SDS011;31769;49.304;8.428;2023-07-09T08:20:42;5.32;;;4.07;;
46036;SDS011;31769;49.304;8.428;2023-07-09T08:23:44;7.18;;;4.55;;
46036;SDS011;31769;49.304;8.428;2023-07-09T08:26:45;7.85;;;4.45;;
46036;SDS011;31769;49.304;8.428;2023-07-09T08:29:46;6.32;;;4.70;;
46036;SDS011;31769;49.304;8.428;2023-07-09T08:32:47;6.55;;;4.47;;
46036;SDS011;31769;49.304;8.428;2023-07-09T08:35:52;6.00;;;3.95;;
46036;SDS011;31769;49.304;8.428;2023-07-09T08:38:53;6.67;;;4.37;;
46036;SDS011;31769;49.304;8.428;2023-07-09T08:42:14;10.50;;;3.67;;
46036;SDS011;31769;49.304;8.428;2023-07-09T08:48:46;7.05;;;4.07;;
46036;SDS011;31769;49.304;8.428;2023-07-09T08:51:49;8.43;;;4.13;;
46036;SDS011;31769;49.304;8.428;2023-07-09T08:54:50;6.60;;;3.90;;
46036;SDS011;31769;49.304;8.428;2023-07-09T08:57:57;8.60;;;3.97;;
46036;SDS011;31769;49.304;8.428;2023-07-09T09:01:29;6.28;;;4.15;;
46036;SDS011;31769;49.304;8.428;2023-07-09T09:04:36;7.13;;;4.07;;
46036;SDS011;31769;49.304;8.428;2023-07-09T09:07:42;6.55;;;3.85;;
46036;SDS011;31769;49.304;8.428;2023-07-09T09:10:48;5.80;;;3.97;;
46036;SDS011;31769;49.304;8.428;2023-07-09T09:14:31;5.35;;;3.47;;
46036;SDS011;31769;49.304;8.428;2023-07-09T09:17:32;6.47;;;3.95;;
46036;SDS011;31769;49.304;8.428;2023-07-09T09:20:34;7.47;;;3.65;;
46036;SDS011;31769;49.304;8.428;2023-07-09T09:23:46;8.55;;;3.28;;
46036;SDS011;31769;49.304;8.428;2023-07-09T09:26:52;3.97;;;3.38;;
46036;SDS011;31769;49.304;8.428;2023-07-09T09:29:57;5.43;;;3.77;;
46036;SDS011;31769;49.304;8.428;2023-07-09T09:33:06;4.88;;;3.58;;
46036;SDS011;31769;49.304;8.428;2023-07-09T09:36:19;4.72;;;3.55;;
46036;SDS011;31769;49.304;8.428;2023-07-09T09:39:22;5.18;;;3.40;;
46036;SDS011;31769;49.304;8.428;2023-07-09T09:42:25;6.70;;;3.47;;
46036;SDS011;31769;49.304;8.428;2023-07-09T09:45:37;6.60;;;3.70;;
46036;SDS011;31769;49.304;8.428;2023-07-09T09:48:43;4.38;;;3.20;;
46036;SDS011;31769;49.304;8.428;2023-07-09T09:51:46;6.67;;;3.70;;
46036;SDS011;31769;49.304;8.428;2023-07-09T09:54:50;5.03;;;3.28;;
46036;SDS011;31769;49.304;8.428;2023-07-09T09:58:01;5.18;;;3.08;;
46036;SDS011;31769;49.304;8.428;2023-07-09T10:01:05;4.97;;;3.65;;
46036;SDS011;31769;49.304;8.428;2023-07-09T10:04:08;6.55;;;3.75;;
46036;SDS011;31769;49.304;8.428;2023-07-09T10:07:23;7.20;;;3.30;;
46036;SDS011;31769;49.304;8.428;2023-07-09T10:10:32;5.40;;;3.53;;
46036;SDS011;31769;49.304;8.428;2023-07-09T10:13:34;6.53;;;3.30;;
46036;SDS011;31769;49.304;8.428;2023-07-09T10:16:44;4.75;;;3.60;;
46036;SDS011;31769;49.304;8.428;2023-07-09T10:26:36;4.85;;;3.03;;
46036;SDS011;31769;49.304;8.428;2023-07-09T10:29:50;3.67;;;2.92;;
46036;SDS011;31769;49.304;8.428;2023-07-09T10:33:06;5.78;;;2.97;;
46036;SDS011;31769;49.304;8.428;2023-07-09T10:39:43;5.40;;;3.50;;
46036;SDS011;31769;49.304;8.428;2023-07-09T10:42:48;7.22;;;3.30;;
46036;SDS011;31769;49.304;8.428;2023-07-09T10:45:55;6.78;;;3.28;;
46036;SDS011;31769;49.304;8.428;2023-07-09T10:49:00;4.45;;;3.17;;
46036;SDS011;31769;49.304;8.428;2023-07-09T10:52:05;4.40;;;2.78;;
46036;SDS011;31769;49.304;8.428;2023-07-09T10:55:22;4.65;;;2.83;;
46036;SDS011;31769;49.304;8.428;2023-07-09T10:58:35;3.72;;;2.60;;
46036;SDS011;31769;49.304;8.428;2023-07-09T11:02:04;5.63;;;3.00;;
46036;SDS011;31769;49.304;8.428;2023-07-09T11:05:18;4.88;;;3.40;;
46036;SDS011;31769;49.304;8.428;2023-07-09T11:08:31;4.78;;;3.35;;
46036;SDS011;31769;49.304;8.428;2023-07-09T11:11:40;4.35;;;3.22;;
46036;SDS011;31769;49.304;8.428;2023-07-09T11:14:55;6.13;;;3.20;;
46036;SDS011;31769;49.304;8.428;2023-07-09T11:18:00;4.28;;;2.88;;
46036;SDS011;31769;49.304;8.428;2023-07-09T11:21:16;4.50;;;3.20;;
46036;SDS011;31769;49.304;8.428;2023-07-09T11:27:53;4.15;;;2.58;;
46036;SDS011;31769;49.304;8.428;2023-07-09T11:31:08;3.78;;;2.97;;
46036;SDS011;31769;49.304;8.428;2023-07-09T11:34:20;3.50;;;2.45;;
46036;SDS011;31769;49.304;8.428;2023-07-09T11:37:26;3.97;;;3.35;;
46036;SDS011;31769;49.304;8.428;2023-07-09T11:40:27;4.40;;;2.70;;
46036;SDS011;31769;49.304;8.428;2023-07-09T11:43:29;5.70;;;2.67;;
46036;SDS011;31769;49.304;8.428;2023-07-09T11:46:36;2.42;;;2.13;;
46036;SDS011;31769;49.304;8.428;2023-07-09T11:52:55;4.47;;;2.47;;
46036;SDS011;31769;49.304;8.428;2023-07-09T11:55:58;3.63;;;2.05;;
46036;SDS011;31769;49.304;8.428;2023-07-09T11:58:59;2.85;;;1.75;;
46036;SDS011;31769;49.304;8.428;2023-07-09T12:02:00;3.30;;;1.90;;
46036;SDS011;31769;49.304;8.428;2023-07-09T12:05:01;4.35;;;2.35;;
46036;SDS011;31769;49.304;8.428;2023-07-09T12:08:06;4.18;;;1.98;;
46036;SDS011;31769;49.304;8.428;2023-07-09T12:11:21;5.32;;;2.15;;
46036;SDS011;31769;49.304;8.428;2023-07-09T12:14:22;2.35;;;1.83;;
46036;SDS011;31769;49.304;8.428;2023-07-09T12:17:26;2.53;;;1.85;;
46036;SDS011;31769;49.304;8.428;2023-07-09T12:20:29;5.22;;;2.33;;
46036;SDS011;31769;49.304;8.428;2023-07-09T12:23:32;3.22;;;2.13;;
46036;SDS011;31769;49.304;8.428;2023-07-09T12:26:33;6.05;;;1.83;;
46036;SDS011;31769;49.304;8.428;2023-07-09T12:29:36;4.18;;;2.38;;
46036;SDS011;31769;49.304;8.428;2023-07-09T12:32:47;4.03;;;2.03;;
46036;SDS011;31769;49.304;8.428;2023-07-09T12:36:02;1.80;;;1.67;;
46036;SDS011;31769;49.304;8.428;2023-07-09T12:39:05;3.05;;;1.70;;
46036;SDS011;31769;49.304;8.428;2023-07-09T12:45:19;2.88;;;1.95;;
46036;SDS011;31769;49.304;8.428;2023-07-09T12:48:21;2.10;;;1.60;;
46036;SDS011;31769;49.304;8.428;2023-07-09T12:51:27;3.30;;;1.85;;
46036;SDS011;31769;49.304;8.428;2023-07-09T12:54:29;3.58;;;1.75;;
46036;SDS011;31769;49.304;8.428;2023-07-09T12:57:30;2.30;;;1.90;;
46036;SDS011;31769;49.304;8.428;2023-07-09T13:00:31;2.85;;;2.08;;
46036;SDS011;31769;49.304;8.428;2023-07-09T13:03:32;2.95;;;2.17;;
46036;SDS011;31769;49.304;8.428;2023-07-09T13:06:35;2.10;;;1.90;;
46036;SDS011;31769;49.304;8.428;2023-07-09T13:09:36;2.15;;;1.92;;
46036;SDS011;31769;49.304;8.428;2023-07-09T13:12:38;5.43;;;2.08;;
46036;SDS011;31769;49.304;8.428;2023-07-09T13:15:41;2.83;;;1.80;;
46036;SDS011;31769;49.304;8.428;2023-07-09T13:21:45;3.65;;;1.77;;
46036;SDS011;31769;49.304;8.428;2023-07-09T13:24:46;4.22;;;1.60;;
46036;SDS011;31769;49.304;8.428;2023-07-09T13:27:47;3.15;;;1.65;;
46036;SDS011;31769;49.304;8.428;2023-07-09T13:30:48;2.38;;;1.60;;
46036;SDS011;31769;49.304;8.428;2023-07-09T13:33:55;3.33;;;2.03;;
46036;SDS011;31769;49.304;8.428;2023-07-09T13:36:58;3.50;;;1.70;;
46036;SDS011;31769;49.304;8.428;2023-07-09T13:39:59;4.95;;;1.63;;
46036;SDS011;31769;49.304;8.428;2023-07-09T13:43:00;5.15;;;1.75;;
46036;SDS011;31769;49.304;8.428;2023-07-09T13:46:01;2.10;;;1.40;;
46036;SDS011;31769;49.304;8.428;2023-07-09T13:49:04;2.00;;;1.58;;
46036;SDS011;31769;49.304;8.428;2023-07-09T13:52:15;3.20;;;1.90;;
46036;SDS011;31769;49.304;8.428;2023-07-09T13:55:19;3.70;;;2.10;;
46036;SDS011;31769;49.304;8.428;2023-07-09T13:58:24;4.78;;;2.00;;
46036;SDS011;31769;49.304;8.428;2023-07-09T14:01:26;5.78;;;1.60;;
46036;SDS011;31769;49.304;8.428;2023-07-09T14:04:28;5.93;;;1.70;;
46036;SDS011;31769;49.304;8.428;2023-07-09T14:07:30;2.00;;;1.80;;
46036;SDS011;31769;49.304;8.428;2023-07-09T14:10:32;4.32;;;1.52;;
46036;SDS011;31769;49.304;8.428;2023-07-09T14:13:33;1.75;;;1.63;;
46036;SDS011;31769;49.304;8.428;2023-07-09T14:16:34;6.45;;;1.67;;
46036;SDS011;31769;49.304;8.428;2023-07-09T14:19:34;3.97;;;1.48;;
46036;SDS011;31769;49.304;8.428;2023-07-09T14:22:36;5.90;;;1.67;;
46036;SDS011;31769;49.304;8.428;2023-07-09T14:25:37;3.80;;;1.60;;
46036;SDS011;31769;49.304;8.428;2023-07-09T14:28:38;3.22;;;1.40;;
46036;SDS011;31769;49.304;8.428;2023-07-09T14:31:39;4.05;;;1.42;;
46036;SDS011;31769;49.304;8.428;2023-07-09T14:34:40;3.47;;;1.50;;
46036;SDS011;31769;49.304;8.428;2023-07-09T14:37:41;4.50;;;1.20;;
46036;SDS011;31769;49.304;8.428;2023-07-09T14:40:43;2.53;;;1.20;;
46036;SDS011;31769;49.304;8.428;2023-07-09T14:43:45;3.00;;;1.88;;
46036;SDS011;31769;49.304;8.428;2023-07-09T14:46:45;2.45;;;1.30;;
46036;SDS011;31769;49.304;8.428;2023-07-09T14:49:46;2.92;;;1.40;;
46036;SDS011;31769;49.304;8.428;2023-07-09T14:52:48;4.45;;;1.48;;
46036;SDS011;31769;49.304;8.428;2023-07-09T14:55:49;3.05;;;1.40;;
46036;SDS011;31769;49.304;8.428;2023-07-09T14:58:50;2.40;;;1.70;;
46036;SDS011;31769;49.304;8.428;2023-07-09T15:01:53;12.73;;;9.57;;
46036;SDS011;31769;49.304;8.428;2023-07-09T15:04:54;3.95;;;2.53;;
46036;SDS011;31769;49.304;8.428;2023-07-09T15:07:55;2.20;;;1.92;;
46036;SDS011;31769;49.304;8.428;2023-07-09T15:10:55;4.50;;;2.47;;
46036;SDS011;31769;49.304;8.428;2023-07-09T15:13:56;2.60;;;1.83;;
46036;SDS011;31769;49.304;8.428;2023-07-09T15:16:57;2.67;;;2.00;;
46036;SDS011;31769;49.304;8.428;2023-07-09T15:19:57;3.50;;;1.73;;
46036;SDS011;31769;49.304;8.428;2023-07-09T15:22:58;3.95;;;2.10;;
46036;SDS011;31769;49.304;8.428;2023-07-09T15:26:00;4.00;;;1.75;;
46036;SDS011;31769;49.304;8.428;2023-07-09T15:29:01;2.75;;;1.42;;
46036;SDS011;31769;49.304;8.428;2023-07-09T15:32:03;2.28;;;2.05;;
46036;SDS011;31769;49.304;8.428;2023-07-09T15:35:04;3.40;;;1.70;;
46036;SDS011;31769;49.304;8.428;2023-07-09T15:41:17;5.40;;;1.98;;
46036;SDS011;31769;49.304;8.428;2023-07-09T15:44:18;8.13;;;2.00;;
46036;SDS011;31769;49.304;8.428;2023-07-09T15:47:21;3.05;;;2.50;;
46036;SDS011;31769;49.304;8.428;2023-07-09T15:50:26;5.88;;;2.20;;
46036;SDS011;31769;49.304;8.428;2023-07-09T15:53:28;3.80;;;2.08;;
46036;SDS011;31769;49.304;8.428;2023-07-09T15:56:29;2.10;;;1.83;;
46036;SDS011;31769;49.304;8.428;2023-07-09T15:59:34;5.72;;;2.92;;
46036;SDS011;31769;49.304;8.428;2023-07-09T16:02:35;6.43;;;2.80;;
46036;SDS011;31769;49.304;8.428;2023-07-09T16:05:36;4.85;;;2.45;;
46036;SDS011;31769;49.304;8.428;2023-07-09T16:08:37;7.53;;;2.45;;
46036;SDS011;31769;49.304;8.428;2023-07-09T16:11:40;6.85;;;2.90;;
46036;SDS011;31769;49.304;8.428;2023-07-09T16:14:43;7.25;;;3.90;;
46036;SDS011;31769;49.304;8.428;2023-07-09T16:17:44;5.63;;;3.03;;
46036;SDS011;31769;49.304;8.428;2023-07-09T16:20:45;4.38;;;2.20;;
46036;SDS011;31769;49.304;8.428;2023-07-09T16:23:47;5.72;;;2.90;;
46036;SDS011;31769;49.304;8.428;2023-07-09T16:26:48;5.97;;;2.95;;
46036;SDS011;31769;49.304;8.428;2023-07-09T16:29:49;4.72;;;3.10;;
46036;SDS011;31769;49.304;8.428;2023-07-09T16:32:50;9.80;;;3.42;;
46036;SDS011;31769;49.304;8.428;2023-07-09T16:35:51;4.57;;;2.47;;
46036;SDS011;31769;49.304;8.428;2023-07-09T16:38:54;4.70;;;2.17;;
46036;SDS011;31769;49.304;8.428;2023-07-09T16:41:55;4.97;;;2.65;;
46036;SDS011;31769;49.304;8.428;2023-07-09T16:44:56;3.75;;;1.95;;
46036;SDS011;31769;49.304;8.428;2023-07-09T16:47:57;4.50;;;2.22;;
46036;SDS011;31769;49.304;8.428;2023-07-09T16:50:58;3.25;;;2.60;;
46036;SDS011;31769;49.304;8.428;2023-07-09T16:53:58;4.68;;;3.35;;
46036;SDS011;31769;49.304;8.428;2023-07-09T16:57:03;5.05;;;3.10;;
46036;SDS011;31769;49.304;8.428;2023-07-09T17:00:21;5.38;;;2.60;;
46036;SDS011;31769;49.304;8.428;2023-07-09T17:03:27;5.93;;;3.30;;
46036;SDS011;31769;49.304;8.428;2023-07-09T17:06:29;6.15;;;3.28;;
46036;SDS011;31769;49.304;8.428;2023-07-09T17:09:29;8.57;;;3.33;;
46036;SDS011;31769;49.304;8.428;2023-07-09T17:12:30;5.57;;;3.08;;
46036;SDS011;31769;49.304;8.428;2023-07-09T17:15:32;5.13;;;2.70;;
46036;SDS011;31769;49.304;8.428;2023-07-09T17:18:36;6.10;;;2.95;;
46036;SDS011;31769;49.304;8.428;2023-07-09T17:21:41;8.88;;;2.92;;
46036;SDS011;31769;49.304;8.428;2023-07-09T17:24:43;4.30;;;2.67;;
46036;SDS011;31769;49.304;8.428;2023-07-09T17:27:44;4.38;;;2.83;;
46036;SDS011;31769;49.304;8.428;2023-07-09T17:30:45;6.32;;;3.20;;
46036;SDS011;31769;49.304;8.428;2023-07-09T17:33:46;9.80;;;5.57;;
46036;SDS011;31769;49.304;8.428;2023-07-09T17:36:47;7.95;;;2.75;;
46036;SDS011;31769;49.304;8.428;2023-07-09T17:39:48;5.60;;;2.72;;
46036;SDS011;31769;49.304;8.428;2023-07-09T17:42:49;10.27;;;3.10;;
46036;SDS011;31769;49.304;8.428;2023-07-09T17:45:50;10.05;;;2.97;;
46036;SDS011;31769;49.304;8.428;2023-07-09T17:48:52;5.47;;;2.70;;
46036;SDS011;31769;49.304;8.428;2023-07-09T17:51:53;5.75;;;3.00;;
46036;SDS011;31769;49.304;8.428;2023-07-09T17:54:54;6.63;;;3.13;;
46036;SDS011;31769;49.304;8.428;2023-07-09T17:57:56;8.75;;;3.10;;
46036;SDS011;31769;49.304;8.428;2023-07-09T18:01:04;4.47;;;2.38;;
46036;SDS011;31769;49.304;8.428;2023-07-09T18:04:16;9.70;;;3.53;;
46036;SDS011;31769;49.304;8.428;2023-07-09T18:07:21;10.10;;;2.90;;
46036;SDS011;31769;49.304;8.428;2023-07-09T18:10:24;4.03;;;3.20;;
46036;SDS011;31769;49.304;8.428;2023-07-09T18:13:28;3.78;;;2.58;;
46036;SDS011;31769;49.304;8.428;2023-07-09T18:16:29;5.28;;;3.00;;
46036;SDS011;31769;49.304;8.428;2023-07-09T18:19:30;3.95;;;2.88;;
46036;SDS011;31769;49.304;8.428;2023-07-09T18:22:31;5.20;;;2.72;;
46036;SDS011;31769;49.304;8.428;2023-07-09T18:25:32;6.90;;;3.10;;
46036;SDS011;31769;49.304;8.428;2023-07-09T18:28:35;5.72;;;3.30;;
46036;SDS011;31769;49.304;8.428;2023-07-09T18:31:36;7.95;;;3.03;;
46036;SDS011;31769;49.304;8.428;2023-07-09T18:34:37;6.00;;;3.03;;
46036;SDS011;31769;49.304;8.428;2023-07-09T18:37:37;14.73;;;3.65;;
46036;SDS011;31769;49.304;8.428;2023-07-09T18:40:42;5.10;;;2.75;;
46036;SDS011;31769;49.304;8.428;2023-07-09T18:43:44;5.13;;;3.05;;
46036;SDS011;31769;49.304;8.428;2023-07-09T18:46:46;7.88;;;3.42;;
46036;SDS011;31769;49.304;8.428;2023-07-09T18:49:47;8.13;;;3.15;;
46036;SDS011;31769;49.304;8.428;2023-07-09T18:52:49;7.43;;;2.70;;